CheckWX is a tool to help pilots better visualize weather data.  It is not intended as a substitute for an official pre-flight weather briefing.

08:21:31 UTC

TRPG TAF
John A. Osborne
Gerald's Park
TAF TRPG 251700Z 2518/2618 VRB03KT 9999 SCT018 PROB30 TEMPO 2518/2618 SHRA

Jan-25@
18:00 UTC

Jan-25 @ 18:00 UTC

Jan-26@
18:00 UTC

Jan-26 @ 18:00 UTC

TAF TRPG 251700Z 2518/2618 VRB03KT 9999 SCT018
Wind
  • Variable at 3 KTS
Cloud Levels
  • Scattered at 1,800' AGL

Jan-25@
18:00 UTC

Jan-25 @ 18:00 UTC

Jan-26@
18:00 UTC

Jan-26 @ 18:00 UTC

PROB30 TEMPO 2518/2618 SHRA

Temporary - 30% Likelihood

Temporary - 30% Likelihood during this time.

Conditions
Rain